Time;durP1;ratioP1;P1;durP2;ratioP2;P2;SDS_P1;SDS_P2;PMS_P1;PMS_P2;Temp;Humidity;BMP_temperature;BMP_pressure;BME280_temperature;BME280_humidity;BME280_pressure;Samples;Min_cycle;Max_cycle;Signal;HPM_P1;HPM_P2
2023/06/07 00:00:36;;;;;;;8.73;4.50;;;11.50;99.90;;;;;;5062325;28;20472;-56
2023/06/07 00:03:09;;;;;;;7.30;5.03;;;11.50;99.90;;;;;;5069426;28;20048;-57
2023/06/07 00:05:38;;;;;;;6.65;4.57;;;11.50;99.90;;;;;;5073741;28;20044;-56
2023/06/07 00:08:07;;;;;;;8.90;4.97;;;11.50;99.90;;;;;;5072505;28;20055;-56
2023/06/07 00:10:36;;;;;;;9.20;5.30;;;11.50;99.90;;;;;;5069641;28;20036;-55
2023/06/07 00:13:04;;;;;;;8.25;6.07;;;11.60;99.90;;;;;;5068608;28;20053;-56
2023/06/07 00:15:32;;;;;;;10.13;6.22;;;11.50;99.90;;;;;;5073184;28;20056;-57
2023/06/07 00:18:01;;;;;;;8.40;6.35;;;11.60;99.90;;;;;;5070346;28;20055;-56
2023/06/07 00:20:31;;;;;;;7.85;5.90;;;11.50;99.90;;;;;;5068588;28;20048;-57
2023/06/07 00:23:01;;;;;;;10.52;6.88;;;11.50;99.90;;;;;;5061980;28;20057;-56
2023/06/07 00:25:30;;;;;;;;;;;11.50;99.90;;;;;;5073177;28;20377;-55
2023/06/07 00:27:57;;;;;;;8.60;6.55;;;11.50;99.90;;;;;;5070257;28;19920;-56
2023/06/07 00:30:25;;;;;;;8.27;6.68;;;11.40;99.90;;;;;;5068535;28;20628;-56
2023/06/07 00:32:53;;;;;;;9.50;6.80;;;11.40;99.90;;;;;;5069660;28;20139;-56
2023/06/07 00:35:22;;;;;;;8.65;6.38;;;11.30;99.90;;;;;;5078079;28;20369;-57
2023/06/07 00:37:50;;;;;;;10.05;6.80;;;11.30;99.90;;;;;;5072376;28;20063;-56
2023/06/07 00:40:18;;;;;;;12.20;6.75;;;11.30;99.90;;;;;;5063136;28;20044;-55
2023/06/07 00:42:47;;;;;;;9.25;6.97;;;11.20;99.90;;;;;;5065355;28;20668;-56
2023/06/07 00:45:14;;;;;;;11.50;6.82;;;11.20;99.90;;;;;;5056113;28;20045;-57
2023/06/07 00:47:42;;;;;;;9.65;6.30;;;11.20;99.90;;;;;;5068422;28;20044;-56
2023/06/07 00:50:11;;;;;;;8.25;5.95;;;11.20;99.90;;;;;;5069112;28;20407;-57
2023/06/07 00:52:40;;;;;;;8.13;6.10;;;11.20;99.90;;;;;;5051228;28;20048;-57
2023/06/07 00:55:08;;;;;;;10.20;6.70;;;11.20;99.90;;;;;;5075848;28;20483;-56
2023/06/07 00:57:38;;;;;;;9.07;6.28;;;11.20;99.90;;;;;;5071460;28;20040;-56
2023/06/07 01:00:13;;;;;;;7.73;6.20;;;11.10;99.90;;;;;;5045506;28;22462;-56
2023/06/07 01:02:46;;;;;;;9.60;6.60;;;11.10;99.90;;;;;;5064687;28;20410;-57
2023/06/07 01:05:20;;;;;;;8.02;5.85;;;11.10;99.90;;;;;;5050944;28;20045;-56
2023/06/07 01:07:54;;;;;;;9.73;5.97;;;11.10;99.90;;;;;;5066801;28;20480;-57
2023/06/07 01:10:23;;;;;;;7.45;6.10;;;11.10;99.90;;;;;;5052233;28;20048;-56
2023/06/07 01:12:53;;;;;;;10.82;6.85;;;11.10;99.90;;;;;;5052664;28;20053;-57
2023/06/07 01:15:22;;;;;;;9.23;5.28;;;11.20;99.90;;;;;;5057348;28;20044;-57
2023/06/07 01:17:51;;;;;;;10.43;5.50;;;11.20;99.90;;;;;;5063487;28;20052;-56
2023/06/07 01:20:25;;;;;;;8.40;5.45;;;11.20;99.90;;;;;;5068718;28;20543;-56
2023/06/07 01:23:00;;;;;;;6.78;5.13;;;11.10;99.90;;;;;;5069534;28;20416;-57
2023/06/07 01:25:28;;;;;;;8.18;4.80;;;11.10;99.90;;;;;;5067377;28;20044;-56
2023/06/07 01:28:00;;;;;;;7.28;5.72;;;11.10;99.90;;;;;;5062386;28;20523;-57
2023/06/07 01:30:31;;;;;;;9.00;5.65;;;11.10;99.90;;;;;;5062923;28;20056;-56
2023/06/07 01:33:03;;;;;;;7.30;5.57;;;11.10;99.90;;;;;;5069983;28;20503;-56
2023/06/07 01:35:33;;;;;;;10.20;6.50;;;11.10;99.90;;;;;;5071783;28;20052;-56
2023/06/07 01:38:02;;;;;;;8.02;5.75;;;11.00;99.90;;;;;;5069408;28;20047;-56
2023/06/07 01:40:32;;;;;;;9.82;6.32;;;11.10;99.90;;;;;;5072608;28;20063;-56
2023/06/07 01:43:00;;;;;;;9.93;6.20;;;11.00;99.90;;;;;;5071703;28;20496;-59
2023/06/07 01:45:29;;;;;;;10.23;6.85;;;11.00;99.90;;;;;;5070414;28;20134;-55
2023/06/07 01:47:57;;;;;;;9.70;6.82;;;11.00;99.90;;;;;;5072890;28;20068;-56
2023/06/07 01:50:25;;;;;;;12.32;7.30;;;11.00;99.90;;;;;;5061033;28;20047;-56
2023/06/07 01:52:53;;;;;;;9.15;6.85;;;11.00;99.90;;;;;;5069758;28;20049;-56
2023/06/07 01:55:22;;;;;;;8.43;6.70;;;11.00;99.90;;;;;;5070727;28;20052;-56
2023/06/07 01:58:20;;;;;;;9.35;6.47;;;10.90;99.90;;;;;;5069386;28;20048;-55
2023/06/07 02:00:48;;;;;;;11.13;6.90;;;10.90;99.90;;;;;;5080488;28;20040;-55
2023/06/07 02:03:38;;;;;;;7.93;6.10;;;10.90;99.90;;;;;;5063310;28;20056;-56
2023/06/07 02:06:10;;;;;;;12.60;7.35;;;10.90;99.90;;;;;;5067723;28;20040;-56
2023/06/07 02:08:52;;;;;;;12.18;7.75;;;10.80;99.90;;;;;;5065305;28;20052;-57
2023/06/07 02:11:22;;;;;;;8.88;6.88;;;10.80;99.90;;;;;;5068910;28;20480;-56
2023/06/07 02:13:53;;;;;;;;;;;10.80;99.90;;;;;;5069167;28;20039;-56
2023/06/07 02:16:38;;;;;;;11.48;7.15;;;10.80;99.90;;;;;;5070979;28;19931;-56
2023/06/07 02:19:09;;;;;;;12.32;6.93;;;10.80;99.90;;;;;;5069482;28;20040;-56
2023/06/07 02:21:50;;;;;;;8.60;6.22;;;10.90;99.90;;;;;;5061638;28;20432;-56
2023/06/07 02:24:17;;;;;;;13.93;7.60;;;10.90;99.90;;;;;;5059886;28;20055;-57
2023/06/07 02:26:45;;;;;;;9.75;7.45;;;10.90;99.90;;;;;;5069257;28;20040;-56
2023/06/07 02:29:13;;;;;;;10.55;7.43;;;10.90;99.90;;;;;;5074518;28;20043;-55
2023/06/07 02:31:42;;;;;;;11.40;7.20;;;;;;;;;;5076910;28;20049;-55
2023/06/07 02:34:10;;;;;;;9.65;7.05;;;10.90;99.90;;;;;;5058334;28;20037;-56
2023/06/07 02:36:40;;;;;;;11.77;7.40;;;10.90;99.90;;;;;;5051717;28;20488;-55
2023/06/07 02:39:09;;;;;;;10.02;6.78;;;10.90;99.90;;;;;;5084147;28;20476;-55
2023/06/07 02:41:36;;;;;;;11.18;7.35;;;10.90;99.90;;;;;;5066784;28;20041;-56
2023/06/07 02:44:04;;;;;;;11.43;7.13;;;11.00;99.90;;;;;;5052774;28;20044;-55
2023/06/07 02:46:32;;;;;;;9.55;6.68;;;11.00;99.90;;;;;;5072029;28;20672;-55
2023/06/07 02:49:00;;;;;;;10.73;7.07;;;10.90;99.90;;;;;;5070347;28;20040;-56
2023/06/07 02:51:30;;;;;;;10.85;6.70;;;10.90;99.90;;;;;;5067027;28;20081;-55
2023/06/07 02:53:59;;;;;;;10.10;7.00;;;10.90;99.90;;;;;;5050212;28;20420;-57
2023/06/07 02:56:29;;;;;;;10.85;6.70;;;10.90;99.90;;;;;;5034092;28;20053;-57
2023/06/07 02:58:57;;;;;;;12.48;7.43;;;10.90;99.90;;;;;;5070312;28;20052;-57
2023/06/07 03:01:33;;;;;;;9.85;7.03;;;10.90;99.90;;;;;;5061819;28;20047;-55
2023/06/07 03:04:02;;;;;;;9.57;6.60;;;10.80;99.90;;;;;;5058245;28;20056;-55
2023/06/07 03:06:30;;;;;;;9.70;6.38;;;10.80;99.90;;;;;;5051742;28;20396;-56
2023/06/07 03:09:05;;;;;;;12.27;7.30;;;10.80;99.90;;;;;;5102980;28;20051;-57
2023/06/07 03:11:36;;;;;;;8.90;6.47;;;10.80;99.90;;;;;;5081122;28;20059;-55
2023/06/07 03:14:04;;;;;;;12.32;6.65;;;10.70;99.90;;;;;;5070191;28;20373;-56
2023/06/07 03:16:40;;;;;;;10.98;7.13;;;10.80;99.90;;;;;;5063799;28;20044;-55
2023/06/07 03:19:07;;;;;;;9.57;6.88;;;10.70;99.90;;;;;;5061338;28;20040;-55
2023/06/07 03:21:35;;;;;;;11.50;6.88;;;10.70;99.90;;;;;;5069997;28;20045;-56
2023/06/07 03:24:06;;;;;;;10.93;6.88;;;10.70;99.90;;;;;;5070011;28;20051;-55
2023/06/07 03:26:34;;;;;;;11.45;7.43;;;10.70;99.90;;;;;;5069904;28;20040;-56
2023/06/07 03:29:04;;;;;;;10.40;7.13;;;10.70;99.90;;;;;;5070039;28;20044;-56
2023/06/07 03:31:36;;;;;;;11.18;6.88;;;10.70;99.90;;;;;;5069670;28;20032;-55
2023/06/07 03:34:09;;;;;;;8.55;6.18;;;10.80;99.90;;;;;;5053126;28;20049;-56
2023/06/07 03:36:37;;;;;;;11.38;6.47;;;10.70;99.90;;;;;;5060188;28;20044;-56
2023/06/07 03:39:06;;;;;;;9.43;5.95;;;10.70;99.90;;;;;;5089020;28;20104;-56
2023/06/07 03:41:33;;;;;;;8.82;5.80;;;10.70;99.90;;;;;;5072910;28;20488;-56
2023/06/07 03:44:05;;;;;;;9.50;6.43;;;10.70;99.90;;;;;;5069126;28;20298;-56
2023/06/07 03:46:33;;;;;;;10.32;6.07;;;10.70;99.90;;;;;;5071214;28;20047;-56
2023/06/07 03:49:02;;;;;;;10.73;5.85;;;10.70;99.90;;;;;;5051363;28;20049;-56
2023/06/07 03:51:32;;;;;;;8.60;5.25;;;10.70;99.90;;;;;;5057908;28;20043;-56
2023/06/07 03:54:02;;;;;;;6.90;4.82;;;10.70;99.90;;;;;;5069731;28;20060;-56
2023/06/07 03:56:30;;;;;;;8.50;5.35;;;10.70;99.90;;;;;;5069621;28;20041;-57
2023/06/07 03:59:01;;;;;;;9.35;5.57;;;10.60;99.90;;;;;;5051157;28;20044;-55
2023/06/07 04:01:32;;;;;;;9.77;5.05;;;10.60;99.90;;;;;;5094020;28;20044;-56
2023/06/07 04:04:01;;;;;;;6.72;4.70;;;10.70;99.90;;;;;;5069439;28;20045;-56
2023/06/07 04:06:30;;;;;;;7.13;5.10;;;10.60;99.90;;;;;;5069429;28;20399;-56
2023/06/07 04:08:59;;;;;;;7.30;4.95;;;10.60;99.90;;;;;;5051908;28;20059;-56
2023/06/07 04:11:27;;;;;;;6.63;4.25;;;10.60;99.90;;;;;;5070296;28;20040;-56
2023/06/07 04:13:56;;;;;;;5.28;3.13;;;10.70;99.90;;;;;;5068097;28;20052;-56
2023/06/07 04:16:29;;;;;;;3.10;2.58;;;10.60;99.90;;;;;;5066316;28;20040;-55
2023/06/07 04:18:58;;;;;;;4.95;3.05;;;10.60;99.90;;;;;;5066427;28;20051;-56
2023/06/07 04:21:32;;;;;;;4.45;3.03;;;10.60;99.90;;;;;;5068124;28;20048;-56
2023/06/07 04:24:04;;;;;;;5.38;3.55;;;10.60;99.90;;;;;;5068181;28;20051;-55
2023/06/07 04:26:32;;;;;;;5.65;3.97;;;10.60;99.90;;;;;;5065414;28;20040;-55
2023/06/07 04:29:00;;;;;;;5.78;3.70;;;10.50;99.90;;;;;;5070868;28;20041;-55
2023/06/07 04:31:34;;;;;;;6.70;4.18;;;10.60;99.90;;;;;;5066745;28;20048;-55
2023/06/07 04:34:06;;;;;;;5.70;3.75;;;10.50;99.90;;;;;;5072814;28;20067;-55
2023/06/07 04:36:39;;;;;;;;;;;10.60;99.90;;;;;;5070091;28;20051;-56
2023/06/07 04:39:18;;;;;;;5.50;4.18;;;10.60;99.90;;;;;;5088969;28;19927;-57
2023/06/07 04:41:48;;;;;;;5.72;4.60;;;10.60;99.90;;;;;;5069205;28;20477;-56
2023/06/07 04:44:28;;;;;;;7.07;5.05;;;10.60;99.90;;;;;;5059359;28;20041;-55
2023/06/07 04:47:02;;;;;;;7.40;5.32;;;10.60;99.90;;;;;;5044365;28;20522;-56
2023/06/07 04:49:38;;;;;;;9.00;5.55;;;10.60;99.90;;;;;;5049159;28;20049;-56
2023/06/07 04:52:07;;;;;;;;;;;10.70;99.90;;;;;;5063438;28;20040;-57
2023/06/07 04:54:37;;;;;;;8.00;5.93;;;10.70;99.90;;;;;;5069420;28;19931;-56
2023/06/07 04:57:08;;;;;;;7.00;5.82;;;10.60;99.90;;;;;;5070323;28;20037;-56
2023/06/07 04:59:44;;;;;;;8.50;5.47;;;10.60;99.90;;;;;;5052622;28;20036;-57
2023/06/07 05:02:18;;;;;;;9.30;6.47;;;10.50;99.90;;;;;;5060462;28;20048;-56
2023/06/07 05:04:48;;;;;;;9.57;5.97;;;10.70;99.90;;;;;;5029792;28;20063;-58
2023/06/07 05:07:16;;;;;;;9.67;6.97;;;10.70;99.90;;;;;;5048463;28;20047;-58
2023/06/07 05:09:49;;;;;;;9.50;6.13;;;10.70;99.90;;;;;;5067342;28;20040;-56
2023/06/07 05:12:20;;;;;;;10.13;6.97;;;10.70;99.90;;;;;;5052606;28;20044;-57
2023/06/07 05:14:47;;;;;;;9.95;6.28;;;10.70;99.90;;;;;;5064536;28;20045;-58
2023/06/07 05:17:19;;;;;;;8.80;5.72;;;10.70;99.90;;;;;;5051244;28;20044;-56
2023/06/07 05:19:50;;;;;;;8.00;5.07;;;10.70;99.90;;;;;;5054495;28;20044;-56
2023/06/07 05:22:18;;;;;;;7.90;5.30;;;10.70;99.90;;;;;;5081077;28;20048;-56
2023/06/07 05:24:45;;;;;;;8.35;5.30;;;10.70;99.90;;;;;;5065935;28;20480;-57
2023/06/07 05:27:14;;;;;;;8.70;5.78;;;10.70;99.90;;;;;;5050247;28;20045;-56
2023/06/07 05:29:42;;;;;;;7.97;5.82;;;10.70;99.90;;;;;;5064809;28;20037;-57
2023/06/07 05:32:10;;;;;;;9.48;5.80;;;10.70;99.90;;;;;;5063597;28;20055;-57
2023/06/07 05:34:39;;;;;;;8.77;5.78;;;;;;;;;;5048573;28;20052;-57
2023/06/07 05:37:07;;;;;;;8.82;6.55;;;10.70;99.90;;;;;;5057624;28;20057;-56
2023/06/07 05:39:35;;;;;;;8.98;5.50;;;10.60;99.90;;;;;;5089073;28;20509;-56
2023/06/07 05:42:05;;;;;;;7.82;5.75;;;10.60;99.90;;;;;;5075792;28;20067;-56
2023/06/07 05:44:34;;;;;;;7.53;5.85;;;10.60;99.90;;;;;;5068398;28;20195;-56
2023/06/07 05:47:02;;;;;;;7.05;5.53;;;10.60;99.90;;;;;;5065991;28;20054;-56
2023/06/07 05:49:30;;;;;;;11.23;6.35;;;10.60;99.90;;;;;;5067542;28;20485;-56
2023/06/07 05:51:58;;;;;;;8.75;6.70;;;10.60;99.90;;;;;;5080357;28;20059;-56
2023/06/07 05:54:26;;;;;;;8.77;6.38;;;10.70;99.90;;;;;;5078654;28;20407;-57
2023/06/07 05:56:54;;;;;;;9.07;5.93;;;10.60;99.90;;;;;;5051442;28;20049;-56
2023/06/07 05:59:22;;;;;;;9.55;6.97;;;10.70;99.90;;;;;;5044751;28;20064;-56
2023/06/07 06:01:50;;;;;;;9.15;6.75;;;10.70;99.90;;;;;;5059171;28;20060;-56
2023/06/07 06:04:18;;;;;;;9.52;6.90;;;10.70;99.90;;;;;;5065930;28;20051;-56
2023/06/07 06:06:46;;;;;;;12.13;6.63;;;10.80;99.90;;;;;;5062634;28;20048;-56
2023/06/07 06:09:14;;;;;;;8.52;5.97;;;10.80;99.90;;;;;;5065129;28;20056;-56
2023/06/07 06:11:41;;;;;;;11.43;6.30;;;10.80;99.90;;;;;;5063928;28;20047;-55
2023/06/07 06:14:10;;;;;;;11.38;7.00;;;10.80;99.90;;;;;;5058599;28;20481;-55
2023/06/07 06:16:38;;;;;;;8.38;5.93;;;10.80;99.90;;;;;;5057134;28;20048;-56
2023/06/07 06:19:06;;;;;;;10.73;7.20;;;10.80;99.90;;;;;;5058555;28;20072;-55
2023/06/07 06:21:33;;;;;;;9.20;6.55;;;10.80;99.90;;;;;;5063928;28;20053;-57
2023/06/07 06:24:03;;;;;;;10.63;6.50;;;10.90;99.90;;;;;;5086427;28;20048;-56
2023/06/07 06:26:30;;;;;;;10.35;6.22;;;10.80;99.90;;;;;;5055302;28;20052;-56
2023/06/07 06:28:58;;;;;;;12.13;6.78;;;10.90;99.90;;;;;;5056422;28;20049;-56
2023/06/07 06:31:27;;;;;;;9.80;7.30;;;10.90;99.90;;;;;;5067384;28;20439;-55
2023/06/07 06:33:57;;;;;;;7.43;5.78;;;10.90;99.90;;;;;;5069985;28;20049;-56
2023/06/07 06:36:26;;;;;;;9.93;7.07;;;10.90;99.90;;;;;;5067004;28;20053;-56
2023/06/07 06:38:54;;;;;;;11.32;7.22;;;11.00;99.90;;;;;;5084442;28;20040;-56
2023/06/07 06:41:21;;;;;;;9.07;6.90;;;11.00;99.90;;;;;;5063163;28;20075;-56
2023/06/07 06:43:50;;;;;;;10.23;6.93;;;11.00;99.90;;;;;;5056538;28;20048;-56
2023/06/07 06:46:18;;;;;;;7.88;6.18;;;11.00;99.90;;;;;;5054550;28;20047;-57
2023/06/07 06:48:45;;;;;;;8.60;5.85;;;11.00;99.90;;;;;;5066926;28;20496;-57
2023/06/07 06:51:26;;;;;;;9.93;7.00;;;11.00;99.90;;;;;;5057758;28;20052;-56
2023/06/07 06:53:54;;;;;;;9.90;6.95;;;11.00;99.90;;;;;;5064115;28;20051;-57
2023/06/07 06:56:22;;;;;;;9.52;6.97;;;11.00;99.90;;;;;;5065966;28;20056;-56
2023/06/07 06:58:50;;;;;;;12.82;7.43;;;11.00;99.90;;;;;;5056735;28;20043;-55
2023/06/07 07:01:21;;;;;;;11.75;6.90;;;11.00;99.90;;;;;;5052850;28;20510;-56
2023/06/07 07:03:52;;;;;;;11.50;7.75;;;11.00;99.90;;;;;;5064678;28;20059;-57
2023/06/07 07:06:20;;;;;;;10.30;7.22;;;11.10;99.90;;;;;;5063014;28;20044;-56
2023/06/07 07:08:48;;;;;;;10.77;7.65;;;11.10;99.90;;;;;;5068008;28;20051;-55
2023/06/07 07:11:16;;;;;;;15.40;8.00;;;11.10;99.90;;;;;;5066982;28;20044;-56
2023/06/07 07:13:44;;;;;;;13.90;7.53;;;11.20;99.90;;;;;;5065280;28;20500;-56
2023/06/07 07:16:12;;;;;;;16.45;8.07;;;11.20;99.90;;;;;;5052841;28;20048;-56
2023/06/07 07:18:40;;;;;;;12.50;8.07;;;11.30;99.90;;;;;;5060031;28;20511;-57
2023/06/07 07:21:07;;;;;;;12.73;9.13;;;11.30;99.90;;;;;;5057109;28;20049;-57
2023/06/07 07:23:36;;;;;;;11.40;7.97;;;11.30;99.90;;;;;;5065769;28;20407;-56
2023/06/07 07:26:04;;;;;;;13.38;8.45;;;11.30;99.90;;;;;;5066179;28;20052;-57
2023/06/07 07:28:36;;;;;;;11.95;7.20;;;11.40;99.90;;;;;;5063166;28;20040;-57
2023/06/07 07:31:04;;;;;;;10.80;7.22;;;11.40;99.90;;;;;;5062296;28;20052;-57
2023/06/07 07:33:33;;;;;;;8.30;6.72;;;11.40;99.90;;;;;;5056957;28;20047;-55
2023/06/07 07:36:02;;;;;;;9.45;7.65;;;11.40;99.90;;;;;;5057987;28;20052;-55
2023/06/07 07:38:32;;;;;;;12.00;8.63;;;11.50;99.90;;;;;;5065141;28;20056;-55
2023/06/07 07:41:00;;;;;;;11.73;7.78;;;11.50;99.90;;;;;;5067957;28;20052;-56
2023/06/07 07:43:27;;;;;;;11.68;6.70;;;11.60;99.90;;;;;;5041498;28;20049;-57
2023/06/07 07:46:00;;;;;;;11.40;5.85;;;11.70;99.90;;;;;;5065354;28;20052;-56
2023/06/07 07:48:29;;;;;;;6.80;5.28;;;11.60;99.90;;;;;;5058482;28;20048;-57
2023/06/07 07:50:57;;;;;;;7.55;5.70;;;11.70;99.90;;;;;;5061107;28;20045;-56
2023/06/07 07:53:25;;;;;;;9.23;5.72;;;11.70;99.90;;;;;;5065798;28;20503;-56
2023/06/07 07:55:52;;;;;;;13.02;5.72;;;11.80;99.90;;;;;;5064801;28;20443;-56
2023/06/07 07:58:20;;;;;;;10.40;5.35;;;11.80;99.90;;;;;;5061679;28;20048;-56
2023/06/07 08:00:48;;;;;;;9.65;5.40;;;11.90;99.90;;;;;;5062668;28;20056;-56
2023/06/07 08:03:16;;;;;;;6.72;4.93;;;11.90;99.90;;;;;;5058983;28;20504;-56
2023/06/07 08:05:44;;;;;;;7.57;4.63;;;11.90;99.90;;;;;;5065780;28;20059;-56
2023/06/07 08:08:14;;;;;;;9.23;4.80;;;12.00;99.90;;;;;;5067353;28;20052;-56
2023/06/07 08:10:42;;;;;;;6.72;3.78;;;12.10;99.90;;;;;;5054276;28;20055;-56
2023/06/07 08:13:10;;;;;;;8.10;3.38;;;12.10;99.90;;;;;;5065375;28;20055;-57
2023/06/07 08:15:38;;;;;;;9.88;3.20;;;12.20;99.90;;;;;;5066997;28;20051;-56
2023/06/07 08:18:06;;;;;;;4.95;2.83;;;12.20;99.90;;;;;;5058643;28;20049;-56
2023/06/07 08:20:35;;;;;;;6.95;3.00;;;12.20;99.90;;;;;;5065244;28;20048;-56
2023/06/07 08:23:03;;;;;;;4.10;2.70;;;12.20;99.90;;;;;;5076015;28;20056;-57
2023/06/07 08:25:31;;;;;;;3.25;2.53;;;12.20;99.90;;;;;;5091678;28;20044;-55
2023/06/07 08:27:59;;;;;;;5.95;2.40;;;12.30;99.90;;;;;;5080403;28;20513;-58
2023/06/07 08:30:28;;;;;;;7.40;2.97;;;12.30;99.90;;;;;;5065747;28;20041;-57
2023/06/07 08:32:56;;;;;;;4.32;2.30;;;12.30;99.90;;;;;;5072244;28;20055;-56
2023/06/07 08:35:24;;;;;;;5.90;2.60;;;12.30;99.90;;;;;;5091081;28;20061;-56
2023/06/07 08:37:52;;;;;;;3.75;2.20;;;12.40;99.90;;;;;;5091092;28;20051;-56
2023/06/07 08:40:21;;;;;;;5.05;2.38;;;12.40;99.90;;;;;;5057920;28;20032;-57
2023/06/07 08:42:50;;;;;;;4.13;2.47;;;12.40;99.90;;;;;;5062273;28;20048;-56
2023/06/07 08:45:17;;;;;;;3.00;1.67;;;12.40;99.90;;;;;;5069593;28;20365;-57
2023/06/07 08:47:46;;;;;;;5.85;2.20;;;12.40;99.90;;;;;;5076404;28;20044;-57
2023/06/07 08:50:17;;;;;;;7.07;2.03;;;12.50;99.90;;;;;;5063814;28;20044;-57
2023/06/07 08:52:51;;;;;;;2.65;1.73;;;12.50;99.90;;;;;;5072420;28;20051;-55
2023/06/07 08:55:19;;;;;;;3.17;2.30;;;12.50;99.90;;;;;;5073402;28;20047;-57
2023/06/07 08:57:51;;;;;;;5.68;1.75;;;12.50;99.90;;;;;;5068108;28;20507;-56
2023/06/07 09:00:23;;;;;;;6.53;1.98;;;12.50;99.90;;;;;;5056543;28;20048;-55
2023/06/07 09:02:52;;;;;;;3.38;2.08;;;12.50;99.90;;;;;;5058196;28;20051;-57
2023/06/07 09:05:21;;;;;;;5.28;2.13;;;12.50;99.90;;;;;;5061897;28;20045;-57
2023/06/07 09:07:50;;;;;;;4.43;2.30;;;12.50;99.90;;;;;;5067298;28;20067;-58
2023/06/07 09:10:20;;;;;;;7.63;1.88;;;12.80;99.90;;;;;;5068415;28;20507;-57
2023/06/07 09:12:48;;;;;;;5.82;2.53;;;12.80;99.90;;;;;;5069107;28;20377;-56
2023/06/07 09:15:20;;;;;;;6.35;1.73;;;12.80;99.90;;;;;;5070890;28;20051;-55
2023/06/07 09:17:53;;;;;;;7.22;1.83;;;12.90;99.90;;;;;;5064422;28;20044;-57
2023/06/07 09:20:24;;;;;;;3.38;2.00;;;13.00;99.90;;;;;;5067357;28;20285;-58
2023/06/07 09:22:57;;;;;;;3.33;2.45;;;13.00;99.90;;;;;;5065823;28;20045;-55
2023/06/07 09:25:27;;;;;;;4.57;2.00;;;13.10;99.90;;;;;;5061443;28;20052;-57
2023/06/07 09:27:55;;;;;;;4.45;1.95;;;13.10;99.90;;;;;;5069102;28;20044;-60
2023/06/07 09:30:24;;;;;;;7.47;2.15;;;;;;;;;;5069145;28;20052;-55
2023/06/07 09:32:53;;;;;;;3.15;1.55;;;13.20;99.90;;;;;;5066806;28;20051;-57
2023/06/07 09:35:21;;;;;;;5.30;1.80;;;13.30;99.90;;;;;;5053328;28;20060;-56
2023/06/07 09:37:54;;;;;;;3.67;2.00;;;13.30;99.90;;;;;;5055927;28;20052;-57
2023/06/07 09:40:23;;;;;;;7.68;1.70;;;13.30;99.90;;;;;;5068684;28;20044;-56
2023/06/07 09:42:59;;;;;;;8.57;2.00;;;13.40;99.90;;;;;;5063096;28;20052;-56
2023/06/07 09:45:28;;;;;;;5.05;1.70;;;13.40;99.90;;;;;;5075545;28;20446;-57
2023/06/07 09:48:04;;;;;;;7.38;3.17;;;13.40;99.90;;;;;;5074545;28;20048;-58
2023/06/07 09:50:32;;;;;;;5.65;1.98;;;13.50;99.90;;;;;;5068503;28;20041;-57
2023/06/07 09:53:01;;;;;;;6.47;2.03;;;13.60;99.90;;;;;;5072702;28;20052;-58
2023/06/07 09:55:30;;;;;;;2.25;1.70;;;13.70;99.90;;;;;;5069637;28;20041;-57
2023/06/07 09:57:58;;;;;;;2.90;1.77;;;13.70;99.90;;;;;;5076007;28;20047;-57
2023/06/07 10:00:27;;;;;;;9.55;1.77;;;13.80;99.90;;;;;;5089754;28;20048;-57
2023/06/07 10:03:05;;;;;;;5.57;2.00;;;13.90;99.90;;;;;;5068866;28;20432;-57
2023/06/07 10:05:34;;;;;;;3.67;1.90;;;14.00;99.90;;;;;;5056843;28;20045;-58
2023/06/07 10:08:04;;;;;;;4.65;1.90;;;14.00;99.90;;;;;;5068692;28;20484;-57
2023/06/07 10:10:34;;;;;;;4.93;1.50;;;14.00;99.90;;;;;;5067784;28;20047;-56
2023/06/07 10:13:05;;;;;;;5.07;2.10;;;14.00;99.90;;;;;;5076467;28;20392;-57
2023/06/07 10:15:35;;;;;;;3.35;1.98;;;14.10;99.90;;;;;;5070914;28;20052;-58
2023/06/07 10:18:23;;;;;;;2.83;1.70;;;14.10;99.90;;;;;;5051758;28;20049;-61
2023/06/07 10:21:17;;;;;;;4.65;1.90;;;14.30;99.90;;;;;;5068678;28;20044;-58
2023/06/07 10:23:57;;;;;;;2.40;1.80;;;14.30;99.90;;;;;;5057191;28;20473;-58
2023/06/07 10:26:35;;;;;;;4.28;1.90;;;14.30;99.90;;;;;;5056765;28;20056;-57
2023/06/07 10:29:16;;;;;;;6.00;2.03;;;14.40;99.90;;;;;;5064187;28;20040;-60
2023/06/07 10:32:04;;;;;;;4.22;2.10;;;14.40;99.90;;;;;;5055541;28;20561;-58
2023/06/07 10:34:32;;;;;;;6.60;1.77;;;14.40;99.90;;;;;;5060213;28;20055;-57
2023/06/07 10:37:02;;;;;;;8.05;2.00;;;14.40;99.90;;;;;;5067533;28;20127;-56
2023/06/07 10:39:31;;;;;;;3.80;1.80;;;14.40;99.90;;;;;;5063184;28;20295;-57
2023/06/07 10:42:00;;;;;;;5.07;1.65;;;14.40;99.90;;;;;;5066800;28;20040;-58
2023/06/07 10:44:30;;;;;;;3.40;1.90;;;14.40;99.90;;;;;;5071399;28;20387;-57
2023/06/07 10:47:27;;;;;;;6.75;2.85;;;14.50;99.90;;;;;;5067243;28;20053;-56
2023/06/07 10:49:55;;;;;;;7.15;2.22;;;;;;;;;;5053250;28;20457;-56
2023/06/07 10:52:26;;;;;;;7.55;1.85;;;14.70;99.90;;;;;;5066986;28;20051;-57
2023/06/07 10:54:54;;;;;;;2.90;1.73;;;14.70;99.90;;;;;;5073091;28;20049;-56
2023/06/07 10:57:36;;;;;;;4.07;1.63;;;14.80;99.90;;;;;;5066088;28;20052;-56
2023/06/07 11:00:30;;;;;;;4.80;2.00;;;14.80;99.90;;;;;;5068306;28;20059;-56
2023/06/07 11:03:08;;;;;;;5.82;1.98;;;14.90;99.90;;;;;;5065324;28;20045;-56
2023/06/07 11:05:58;;;;;;;2.78;1.70;;;14.90;99.90;;;;;;5048383;28;20049;-56
2023/06/07 11:08:31;;;;;;;5.75;1.73;;;15.00;99.90;;;;;;5070516;28;20059;-57
2023/06/07 11:11:01;;;;;;;7.70;2.97;;;15.20;99.90;;;;;;5050154;28;20041;-57
2023/06/07 11:13:44;;;;;;;8.98;2.10;;;15.20;99.90;;;;;;5052302;28;20055;-57
2023/06/07 11:16:24;;;;;;;5.88;1.80;;;15.20;99.90;;;;;;5076821;28;20051;-58
2023/06/07 11:19:09;;;;;;;3.80;1.67;;;15.30;99.90;;;;;;5071840;28;20052;-57
2023/06/07 11:21:55;;;;;;;5.70;2.08;;;15.30;99.90;;;;;;5061705;28;20044;-56
2023/06/07 11:24:24;;;;;;;4.07;1.70;;;15.30;99.90;;;;;;5066297;28;20049;-56
2023/06/07 11:26:52;;;;;;;4.97;1.73;;;15.40;99.90;;;;;;5067901;28;20194;-57
2023/06/07 11:29:20;;;;;;;5.25;1.92;;;15.40;99.90;;;;;;5073451;28;20049;-58
2023/06/07 11:32:00;;;;;;;7.05;2.17;;;15.50;99.90;;;;;;5065011;28;20392;-57
2023/06/07 11:34:30;;;;;;;7.07;2.30;;;15.50;99.90;;;;;;5052749;28;20055;-57
2023/06/07 11:37:15;;;;;;;8.13;2.03;;;15.50;99.90;;;;;;5047726;28;20229;-57
2023/06/07 11:39:43;;;;;;;7.72;2.40;;;15.50;99.90;;;;;;5048396;28;20045;-56
2023/06/07 11:42:14;;;;;;;8.88;2.28;;;15.60;99.90;;;;;;5051684;28;20047;-58
2023/06/07 11:44:43;;;;;;;8.02;2.65;;;15.70;99.90;;;;;;5048517;28;20044;-57
2023/06/07 11:47:11;;;;;;;5.28;2.50;;;15.70;99.90;;;;;;5056524;28;20052;-57
2023/06/07 11:49:40;;;;;;;5.50;2.42;;;15.90;99.90;;;;;;5054434;28;20609;-57
2023/06/07 11:52:09;;;;;;;6.93;1.90;;;16.10;99.90;;;;;;5061343;28;20055;-57
2023/06/07 11:54:42;;;;;;;5.75;2.15;;;16.20;99.90;;;;;;5047053;28;20049;-57
2023/06/07 11:57:09;;;;;;;4.97;2.42;;;16.30;99.90;;;;;;5052849;28;20040;-57
2023/06/07 11:59:41;;;;;;;5.50;2.72;;;16.50;99.90;;;;;;5085678;28;20425;-58
2023/06/07 12:02:09;;;;;;;3.30;1.90;;;16.60;99.90;;;;;;5065873;28;20526;-56
2023/06/07 12:04:37;;;;;;;4.32;2.00;;;16.70;99.90;;;;;;5063335;28;20071;-57
2023/06/07 12:07:30;;;;;;;6.55;2.40;;;16.70;99.90;;;;;;5053518;28;20063;-57
2023/06/07 12:09:58;;;;;;;5.13;2.00;;;16.90;99.90;;;;;;5066895;28;20075;-57
2023/06/07 12:12:26;;;;;;;7.30;2.63;;;;;;;;;;5069933;28;20399;-57
2023/06/07 12:15:06;;;;;;;10.10;2.45;;;17.00;99.90;;;;;;5072675;28;20055;-58
2023/06/07 12:17:36;;;;;;;13.02;3.42;;;17.10;99.90;;;;;;5091714;28;20403;-56
2023/06/07 12:20:12;;;;;;;6.60;2.45;;;17.10;99.90;;;;;;5067863;28;20049;-58
2023/06/07 12:22:40;;;;;;;6.90;2.10;;;17.30;99.90;;;;;;5057818;28;20075;-57
2023/06/07 12:25:15;;;;;;;5.68;2.28;;;17.30;99.90;;;;;;5072071;28;20048;-58
2023/06/07 12:27:47;;;;;;;4.40;1.70;;;17.40;99.90;;;;;;5073030;28;20044;-57
2023/06/07 12:30:19;;;;;;;4.72;2.10;;;17.50;99.90;;;;;;5073642;28;20040;-57
2023/06/07 12:32:47;;;;;;;2.90;1.52;;;17.50;99.90;;;;;;5085857;28;20048;-57
2023/06/07 12:35:15;;;;;;;12.23;2.65;;;17.60;99.90;;;;;;5064123;28;20032;-58
2023/06/07 12:37:44;;;;;;;9.68;2.60;;;;;;;;;;5071230;28;20049;-57
2023/06/07 12:40:12;;;;;;;4.55;2.45;;;18.30;99.90;;;;;;5055919;28;20053;-57
2023/06/07 12:42:43;;;;;;;5.63;2.00;;;18.80;99.90;;;;;;5074598;28;20048;-58
2023/06/07 12:45:11;;;;;;;10.40;2.60;;;19.20;99.50;;;;;;5090950;28;20044;-58
2023/06/07 12:47:39;;;;;;;3.95;2.13;;;19.60;98.50;;;;;;5090805;28;20044;-58
2023/06/07 12:50:07;;;;;;;4.95;2.17;;;19.80;97.70;;;;;;5060511;28;20045;-58
2023/06/07 12:52:35;;;;;;;4.25;2.38;;;19.90;96.70;;;;;;5053243;28;20076;-58
2023/06/07 12:55:03;;;;;;;5.40;2.20;;;20.00;96.60;;;;;;5090959;28;20052;-58
2023/06/07 12:57:32;;;;;;;7.57;2.50;;;20.00;96.10;;;;;;5087932;28;20048;-58
2023/06/07 13:00:00;;;;;;;6.13;2.60;;;20.10;96.30;;;;;;5069830;28;20052;-57
2023/06/07 13:02:28;;;;;;;7.28;2.47;;;20.10;95.50;;;;;;5071503;28;20037;-57
2023/06/07 13:04:57;;;;;;;7.95;2.20;;;20.10;96.20;;;;;;5075789;28;20048;-62